SBPASBCX

Guest
Details From SBPA - Salgado Filho
To SBCX - Campo Dos Bugres
Flight Number -
Tags generated
Created
Modified
Stats Distance 48 nm / 90 km
Max Altitude 100 ft / 30 m
Waypoints 3
Social Downloads 5
Likes 0
Share VATSIM

Download

Looking for another format? Having issues loading an existing format? Contact us
Advertisement - Login to hide

Notes

Basic altitude profile: - Ascent Rate: 2500ft/min - Ascent Speed: 250kts - Cruise Altitude: 12000ft - Cruise Speed: 420kts - Descent Rate: 1500ft/min - Descent Speed: 250kts Options: - Use NATs: yes - Use PACOTS: yes - Use low airways: yes - Use high airways: no

Route

SBPA POR SBCX

ID Type Via Altitude (ft/m) Position (lat/lon) Dist (leg/tot) Name
O SBPA APT - 0 / 0 -29.99443 / -51.17143 - / 0 nm Salgado Filho
POR VOR - 100 / 30 -29.99600 / -51.16517 0 / 0 nm PORTO ALEGRE VOR-DME
O SBCX APT - 0 / 0 -29.19706 / -51.18753 47 / 48 nm Campo Dos Bugres

Altitude Profile

Advertisement - Login to hide

SBPA

Details ICAO SBPA (POA)
Name Salgado Filho Intl
Region Brazil
Timezone America/Sao_Paulo (UTC-3.0)
Stats Elevation 12 ft / 4 m (AMSL)
Location -29.994600° -51.171200°
Runways 1
Magnetic Variation 17.110° W

METAR

SBPA 200000Z 29006KT 250V340 CAVOK 15/08 Q1020

Decode

TAF

TAF SBPA 192215Z 2000/2024 29006KT CAVOK TN08/2009Z TX21/2018Z BECMG 2012/2014 22010KT RMK PEB

Decode

Departure Runways

ID Width Length Bearing (true/mag) Surface Threshold Overrun Markings Lighting
11 148 ft / 45 m 7,479 ft / 2,280 m 91.34° / 108.45° ASPHALT 0 ft / 0 m 197 ft / 60 m PREC-APP CENTERLINE EDGE THRESHOLD ALSF-II REIL-OMNI
29 148 ft / 45 m 7,479 ft / 2,280 m 271.32° / 288.43° ASPHALT 0 ft / 0 m 197 ft / 60 m PREC-APP CENTERLINE EDGE THRESHOLD REIL-OMNI

SBCX

Details ICAO SBCX (CXJ)
Name Campo dos Bugres Airport
Region Brazil
Timezone America/Sao_Paulo (UTC-3.0)
Stats Elevation 2,472 ft / 753 m (AMSL)
Location -29.197100° -51.187700°
Runways 1
Magnetic Variation 17.427° W

METAR

SBCX 200000Z 30012KT CAVOK 09/05 Q1022

Decode

TAF

Not found

Destination Runways

ID Width Length Bearing (true/mag) Surface Threshold Overrun Markings Lighting
15 98 ft / 30 m 6,368 ft / 1,941 m 135.96° / 153.39° ASPHALT 876 ft / 267 m 0 ft / 0 m PREC-APP EDGE THRESHOLD
33 98 ft / 30 m 6,368 ft / 1,941 m 315.96° / 333.38° ASPHALT 0 ft / 0 m 197 ft / 60 m PREC-APP EDGE THRESHOLD

Popular Alternatives